sensor_id;sensor_type;location;lat;lon;timestamp;P1;durP1;ratioP1;P2;durP2;ratioP2
68577;SDS011;61668;45.388;11.784;2022-12-05T00:01:19;13.20;;;5.80;;
68577;SDS011;61668;45.388;11.784;2022-12-05T00:03:56;11.40;;;5.40;;
68577;SDS011;61668;45.388;11.784;2022-12-05T00:06:27;11.80;;;5.10;;
68577;SDS011;61668;45.388;11.784;2022-12-05T00:08:54;10.30;;;4.70;;
68577;SDS011;61668;45.388;11.784;2022-12-05T00:11:25;11.60;;;4.90;;
68577;SDS011;61668;45.388;11.784;2022-12-05T00:13:55;10.60;;;4.90;;
68577;SDS011;61668;45.388;11.784;2022-12-05T00:16:24;11.50;;;5.80;;
68577;SDS011;61668;45.388;11.784;2022-12-05T00:18:51;11.00;;;4.90;;
68577;SDS011;61668;45.388;11.784;2022-12-05T00:21:24;11.50;;;5.90;;
68577;SDS011;61668;45.388;11.784;2022-12-05T00:23:52;11.50;;;4.80;;
68577;SDS011;61668;45.388;11.784;2022-12-05T00:26:19;11.10;;;5.50;;
68577;SDS011;61668;45.388;11.784;2022-12-05T00:28:45;11.50;;;4.80;;
68577;SDS011;61668;45.388;11.784;2022-12-05T00:31:14;12.40;;;6.00;;
68577;SDS011;61668;45.388;11.784;2022-12-05T00:33:44;11.70;;;5.40;;
68577;SDS011;61668;45.388;11.784;2022-12-05T00:36:16;12.20;;;6.00;;
68577;SDS011;61668;45.388;11.784;2022-12-05T00:38:43;11.80;;;5.50;;
68577;SDS011;61668;45.388;11.784;2022-12-05T00:41:12;12.30;;;5.90;;
68577;SDS011;61668;45.388;11.784;2022-12-05T00:43:39;12.10;;;5.30;;
68577;SDS011;61668;45.388;11.784;2022-12-05T00:46:08;12.20;;;5.10;;
68577;SDS011;61668;45.388;11.784;2022-12-05T00:48:35;12.30;;;5.80;;
68577;SDS011;61668;45.388;11.784;2022-12-05T00:53:27;13.60;;;7.00;;
68577;SDS011;61668;45.388;11.784;2022-12-05T00:55:52;35.50;;;18.90;;
68577;SDS011;61668;45.388;11.784;2022-12-05T00:58:18;17.10;;;8.20;;
68577;SDS011;61668;45.388;11.784;2022-12-05T01:00:43;12.30;;;5.00;;
68577;SDS011;61668;45.388;11.784;2022-12-05T01:03:09;16.40;;;6.90;;
68577;SDS011;61668;45.388;11.784;2022-12-05T01:05:34;11.80;;;5.60;;
68577;SDS011;61668;45.388;11.784;2022-12-05T01:08:00;11.20;;;5.10;;
68577;SDS011;61668;45.388;11.784;2022-12-05T01:10:25;12.00;;;5.50;;
68577;SDS011;61668;45.388;11.784;2022-12-05T01:12:51;12.30;;;5.00;;
68577;SDS011;61668;45.388;11.784;2022-12-05T01:15:16;11.90;;;5.80;;
68577;SDS011;61668;45.388;11.784;2022-12-05T01:17:41;11.90;;;5.80;;
68577;SDS011;61668;45.388;11.784;2022-12-05T01:20:07;11.80;;;6.00;;
68577;SDS011;61668;45.388;11.784;2022-12-05T01:22:33;12.30;;;5.80;;
68577;SDS011;61668;45.388;11.784;2022-12-05T01:24:58;11.80;;;5.50;;
68577;SDS011;61668;45.388;11.784;2022-12-05T01:27:24;11.60;;;5.60;;
68577;SDS011;61668;45.388;11.784;2022-12-05T01:29:49;12.60;;;6.00;;
68577;SDS011;61668;45.388;11.784;2022-12-05T01:32:15;14.70;;;6.20;;
68577;SDS011;61668;45.388;11.784;2022-12-05T01:34:40;13.60;;;6.70;;
68577;SDS011;61668;45.388;11.784;2022-12-05T01:37:05;12.50;;;5.70;;
68577;SDS011;61668;45.388;11.784;2022-12-05T01:39:31;11.80;;;5.40;;
68577;SDS011;61668;45.388;11.784;2022-12-05T01:41:56;12.60;;;6.20;;
68577;SDS011;61668;45.388;11.784;2022-12-05T01:46:49;12.90;;;6.00;;
68577;SDS011;61668;45.388;11.784;2022-12-05T01:49:40;12.60;;;6.20;;
68577;SDS011;61668;45.388;11.784;2022-12-05T01:52:25;12.60;;;6.10;;
68577;SDS011;61668;45.388;11.784;2022-12-05T01:54:55;16.20;;;7.70;;
68577;SDS011;61668;45.388;11.784;2022-12-05T01:57:25;15.50;;;7.00;;
68577;SDS011;61668;45.388;11.784;2022-12-05T01:59:54;15.70;;;7.30;;
68577;SDS011;61668;45.388;11.784;2022-12-05T02:02:26;15.40;;;8.30;;
68577;SDS011;61668;45.388;11.784;2022-12-05T02:05:06;16.40;;;8.50;;
68577;SDS011;61668;45.388;11.784;2022-12-05T02:07:37;17.10;;;9.30;;
68577;SDS011;61668;45.388;11.784;2022-12-05T02:10:05;14.90;;;7.90;;
68577;SDS011;61668;45.388;11.784;2022-12-05T02:12:32;15.70;;;8.00;;
68577;SDS011;61668;45.388;11.784;2022-12-05T02:15:41;15.00;;;7.70;;
68577;SDS011;61668;45.388;11.784;2022-12-05T02:24:23;13.50;;;6.60;;
68577;SDS011;61668;45.388;11.784;2022-12-05T02:30:09;14.00;;;7.20;;
68577;SDS011;61668;45.388;11.784;2022-12-05T02:41:03;13.30;;;7.50;;
68577;SDS011;61668;45.388;11.784;2022-12-05T02:46:31;14.10;;;7.00;;
68577;SDS011;61668;45.388;11.784;2022-12-05T02:49:06;17.60;;;8.30;;
68577;SDS011;61668;45.388;11.784;2022-12-05T02:51:42;13.30;;;6.80;;
68577;SDS011;61668;45.388;11.784;2022-12-05T02:54:13;13.60;;;6.90;;
68577;SDS011;61668;45.388;11.784;2022-12-05T02:56:45;13.30;;;6.80;;
68577;SDS011;61668;45.388;11.784;2022-12-05T02:59:11;14.50;;;7.30;;
68577;SDS011;61668;45.388;11.784;2022-12-05T03:01:36;14.40;;;6.60;;
68577;SDS011;61668;45.388;11.784;2022-12-05T03:04:05;13.10;;;6.40;;
68577;SDS011;61668;45.388;11.784;2022-12-05T03:06:36;15.50;;;8.10;;
68577;SDS011;61668;45.388;11.784;2022-12-05T03:09:23;15.30;;;7.40;;
68577;SDS011;61668;45.388;11.784;2022-12-05T03:11:54;14.50;;;7.30;;
68577;SDS011;61668;45.388;11.784;2022-12-05T03:14:27;15.70;;;7.20;;
68577;SDS011;61668;45.388;11.784;2022-12-05T03:16:58;16.30;;;7.80;;
68577;SDS011;61668;45.388;11.784;2022-12-05T03:19:36;15.80;;;6.90;;
68577;SDS011;61668;45.388;11.784;2022-12-05T03:22:32;15.60;;;7.30;;
68577;SDS011;61668;45.388;11.784;2022-12-05T03:25:04;17.40;;;8.30;;
68577;SDS011;61668;45.388;11.784;2022-12-05T03:30:21;16.20;;;8.10;;
68577;SDS011;61668;45.388;11.784;2022-12-05T03:38:13;19.30;;;8.00;;
68577;SDS011;61668;45.388;11.784;2022-12-05T03:41:30;16.20;;;7.80;;
68577;SDS011;61668;45.388;11.784;2022-12-05T03:44:17;18.30;;;7.90;;
68577;SDS011;61668;45.388;11.784;2022-12-05T03:49:38;16.80;;;7.20;;
68577;SDS011;61668;45.388;11.784;2022-12-05T03:52:11;15.20;;;7.80;;
68577;SDS011;61668;45.388;11.784;2022-12-05T03:54:54;16.90;;;7.40;;
68577;SDS011;61668;45.388;11.784;2022-12-05T03:57:26;15.40;;;6.70;;
68577;SDS011;61668;45.388;11.784;2022-12-05T04:02:42;13.30;;;5.90;;
68577;SDS011;61668;45.388;11.784;2022-12-05T04:05:24;15.50;;;6.30;;
68577;SDS011;61668;45.388;11.784;2022-12-05T04:08:02;15.20;;;5.90;;
68577;SDS011;61668;45.388;11.784;2022-12-05T04:10:35;13.00;;;5.50;;
68577;SDS011;61668;45.388;11.784;2022-12-05T04:13:17;12.60;;;4.60;;
68577;SDS011;61668;45.388;11.784;2022-12-05T04:15:50;15.50;;;5.50;;
68577;SDS011;61668;45.388;11.784;2022-12-05T04:18:45;13.40;;;5.10;;
68577;SDS011;61668;45.388;11.784;2022-12-05T04:21:15;14.20;;;6.40;;
68577;SDS011;61668;45.388;11.784;2022-12-05T04:24:00;15.80;;;6.20;;
68577;SDS011;61668;45.388;11.784;2022-12-05T04:26:48;13.70;;;7.10;;
68577;SDS011;61668;45.388;11.784;2022-12-05T04:29:33;17.30;;;7.10;;
68577;SDS011;61668;45.388;11.784;2022-12-05T04:32:07;14.10;;;6.50;;
68577;SDS011;61668;45.388;11.784;2022-12-05T04:34:36;16.70;;;6.50;;
68577;SDS011;61668;45.388;11.784;2022-12-05T04:37:09;16.30;;;6.90;;
68577;SDS011;61668;45.388;11.784;2022-12-05T04:39:47;14.70;;;5.80;;
68577;SDS011;61668;45.388;11.784;2022-12-05T04:42:27;16.00;;;7.30;;
68577;SDS011;61668;45.388;11.784;2022-12-05T04:45:02;15.80;;;7.30;;
68577;SDS011;61668;45.388;11.784;2022-12-05T04:47:34;15.90;;;6.90;;
68577;SDS011;61668;45.388;11.784;2022-12-05T04:50:03;13.80;;;6.00;;
68577;SDS011;61668;45.388;11.784;2022-12-05T04:52:32;15.40;;;6.90;;
68577;SDS011;61668;45.388;11.784;2022-12-05T04:57:36;13.90;;;5.90;;
68577;SDS011;61668;45.388;11.784;2022-12-05T05:00:27;15.30;;;7.00;;
68577;SDS011;61668;45.388;11.784;2022-12-05T05:03:20;15.80;;;6.30;;
68577;SDS011;61668;45.388;11.784;2022-12-05T05:06:06;13.20;;;5.50;;
68577;SDS011;61668;45.388;11.784;2022-12-05T05:08:55;14.90;;;6.40;;
68577;SDS011;61668;45.388;11.784;2022-12-05T05:11:27;15.10;;;6.30;;
68577;SDS011;61668;45.388;11.784;2022-12-05T05:13:54;14.00;;;6.10;;
68577;SDS011;61668;45.388;11.784;2022-12-05T05:16:26;13.80;;;5.70;;
68577;SDS011;61668;45.388;11.784;2022-12-05T05:18:54;14.80;;;6.50;;
68577;SDS011;61668;45.388;11.784;2022-12-05T05:21:26;14.50;;;6.20;;
68577;SDS011;61668;45.388;11.784;2022-12-05T05:23:53;15.20;;;6.80;;
68577;SDS011;61668;45.388;11.784;2022-12-05T05:26:20;16.20;;;7.40;;
68577;SDS011;61668;45.388;11.784;2022-12-05T05:28:47;15.40;;;7.00;;
68577;SDS011;61668;45.388;11.784;2022-12-05T05:31:14;14.90;;;7.40;;
68577;SDS011;61668;45.388;11.784;2022-12-05T05:33:40;15.80;;;6.50;;
68577;SDS011;61668;45.388;11.784;2022-12-05T05:36:08;16.20;;;6.70;;
68577;SDS011;61668;45.388;11.784;2022-12-05T05:38:43;16.20;;;6.40;;
68577;SDS011;61668;45.388;11.784;2022-12-05T05:41:15;14.90;;;6.30;;
68577;SDS011;61668;45.388;11.784;2022-12-05T05:43:42;17.30;;;6.90;;
68577;SDS011;61668;45.388;11.784;2022-12-05T05:46:08;17.30;;;7.40;;
68577;SDS011;61668;45.388;11.784;2022-12-05T05:48:35;15.20;;;7.10;;
68577;SDS011;61668;45.388;11.784;2022-12-05T05:51:02;14.90;;;7.10;;
68577;SDS011;61668;45.388;11.784;2022-12-05T05:53:29;16.10;;;6.30;;
68577;SDS011;61668;45.388;11.784;2022-12-05T05:55:55;16.60;;;7.30;;
68577;SDS011;61668;45.388;11.784;2022-12-05T05:58:20;16.90;;;7.10;;
68577;SDS011;61668;45.388;11.784;2022-12-05T06:00:46;16.30;;;7.50;;
68577;SDS011;61668;45.388;11.784;2022-12-05T06:03:12;15.80;;;6.60;;
68577;SDS011;61668;45.388;11.784;2022-12-05T06:05:38;15.30;;;5.90;;
68577;SDS011;61668;45.388;11.784;2022-12-05T06:08:04;15.00;;;6.70;;
68577;SDS011;61668;45.388;11.784;2022-12-05T06:10:29;15.80;;;6.70;;
68577;SDS011;61668;45.388;11.784;2022-12-05T06:12:56;16.90;;;7.30;;
68577;SDS011;61668;45.388;11.784;2022-12-05T06:15:22;17.30;;;7.00;;
68577;SDS011;61668;45.388;11.784;2022-12-05T06:17:48;16.90;;;7.50;;
68577;SDS011;61668;45.388;11.784;2022-12-05T06:20:13;15.10;;;6.20;;
68577;SDS011;61668;45.388;11.784;2022-12-05T06:22:39;16.60;;;7.20;;
68577;SDS011;61668;45.388;11.784;2022-12-05T06:25:09;15.50;;;7.50;;
68577;SDS011;61668;45.388;11.784;2022-12-05T06:27:35;18.70;;;7.30;;
68577;SDS011;61668;45.388;11.784;2022-12-05T06:30:01;17.30;;;8.30;;
68577;SDS011;61668;45.388;11.784;2022-12-05T06:32:27;15.00;;;7.30;;
68577;SDS011;61668;45.388;11.784;2022-12-05T06:34:54;17.40;;;7.30;;
68577;SDS011;61668;45.388;11.784;2022-12-05T06:37:19;17.60;;;7.70;;
68577;SDS011;61668;45.388;11.784;2022-12-05T06:39:45;16.20;;;7.60;;
68577;SDS011;61668;45.388;11.784;2022-12-05T06:42:10;15.60;;;6.60;;
68577;SDS011;61668;45.388;11.784;2022-12-05T06:44:36;15.90;;;7.10;;
68577;SDS011;61668;45.388;11.784;2022-12-05T06:47:01;16.00;;;8.00;;
68577;SDS011;61668;45.388;11.784;2022-12-05T06:49:27;15.20;;;6.70;;
68577;SDS011;61668;45.388;11.784;2022-12-05T06:51:57;14.60;;;6.40;;
68577;SDS011;61668;45.388;11.784;2022-12-05T06:54:24;15.80;;;7.20;;
68577;SDS011;61668;45.388;11.784;2022-12-05T06:56:49;15.80;;;6.80;;
68577;SDS011;61668;45.388;11.784;2022-12-05T06:59:15;15.10;;;6.50;;
68577;SDS011;61668;45.388;11.784;2022-12-05T07:01:40;14.70;;;6.60;;
68577;SDS011;61668;45.388;11.784;2022-12-05T07:06:34;14.90;;;6.70;;
68577;SDS011;61668;45.388;11.784;2022-12-05T07:09:01;15.20;;;7.30;;
68577;SDS011;61668;45.388;11.784;2022-12-05T07:11:27;14.90;;;7.30;;
68577;SDS011;61668;45.388;11.784;2022-12-05T07:13:53;17.30;;;8.50;;
68577;SDS011;61668;45.388;11.784;2022-12-05T07:16:18;14.80;;;7.70;;
68577;SDS011;61668;45.388;11.784;2022-12-05T07:18:44;16.60;;;8.00;;
68577;SDS011;61668;45.388;11.784;2022-12-05T07:21:11;16.80;;;8.10;;
68577;SDS011;61668;45.388;11.784;2022-12-05T07:23:39;16.60;;;7.10;;
68577;SDS011;61668;45.388;11.784;2022-12-05T07:26:07;16.70;;;7.00;;
68577;SDS011;61668;45.388;11.784;2022-12-05T07:28:35;15.50;;;7.70;;
68577;SDS011;61668;45.388;11.784;2022-12-05T07:31:06;15.40;;;7.30;;
68577;SDS011;61668;45.388;11.784;2022-12-05T07:33:33;15.50;;;7.20;;
68577;SDS011;61668;45.388;11.784;2022-12-05T07:36:00;14.40;;;7.40;;
68577;SDS011;61668;45.388;11.784;2022-12-05T07:38:28;16.10;;;7.40;;
68577;SDS011;61668;45.388;11.784;2022-12-05T07:40:53;13.30;;;6.40;;
68577;SDS011;61668;45.388;11.784;2022-12-05T07:43:19;16.10;;;6.30;;
68577;SDS011;61668;45.388;11.784;2022-12-05T07:45:45;14.50;;;6.50;;
68577;SDS011;61668;45.388;11.784;2022-12-05T07:48:10;18.10;;;8.30;;
68577;SDS011;61668;45.388;11.784;2022-12-05T07:50:36;14.80;;;7.40;;
68577;SDS011;61668;45.388;11.784;2022-12-05T07:53:01;16.90;;;8.30;;
68577;SDS011;61668;45.388;11.784;2022-12-05T07:55:27;18.10;;;9.40;;
68577;SDS011;61668;45.388;11.784;2022-12-05T07:57:52;18.00;;;9.20;;
68577;SDS011;61668;45.388;11.784;2022-12-05T08:00:18;17.10;;;8.80;;
68577;SDS011;61668;45.388;11.784;2022-12-05T08:02:45;16.90;;;8.50;;
68577;SDS011;61668;45.388;11.784;2022-12-05T08:05:10;16.70;;;8.90;;
68577;SDS011;61668;45.388;11.784;2022-12-05T08:07:35;18.00;;;8.10;;
68577;SDS011;61668;45.388;11.784;2022-12-05T08:10:02;20.60;;;10.00;;
68577;SDS011;61668;45.388;11.784;2022-12-05T08:12:28;20.60;;;10.10;;
68577;SDS011;61668;45.388;11.784;2022-12-05T08:14:54;22.10;;;11.90;;
68577;SDS011;61668;45.388;11.784;2022-12-05T08:17:19;19.90;;;10.70;;
68577;SDS011;61668;45.388;11.784;2022-12-05T08:19:44;18.30;;;8.90;;
68577;SDS011;61668;45.388;11.784;2022-12-05T08:22:10;20.70;;;10.60;;
68577;SDS011;61668;45.388;11.784;2022-12-05T08:24:35;19.80;;;9.50;;
68577;SDS011;61668;45.388;11.784;2022-12-05T08:27:03;16.20;;;7.80;;
68577;SDS011;61668;45.388;11.784;2022-12-05T08:29:29;16.10;;;8.00;;
68577;SDS011;61668;45.388;11.784;2022-12-05T08:31:54;18.40;;;9.00;;
68577;SDS011;61668;45.388;11.784;2022-12-05T08:34:20;22.30;;;11.50;;
68577;SDS011;61668;45.388;11.784;2022-12-05T08:36:45;18.10;;;8.60;;
68577;SDS011;61668;45.388;11.784;2022-12-05T08:39:13;19.30;;;10.10;;
68577;SDS011;61668;45.388;11.784;2022-12-05T08:41:41;14.50;;;7.50;;
68577;SDS011;61668;45.388;11.784;2022-12-05T08:44:09;15.40;;;6.70;;
68577;SDS011;61668;45.388;11.784;2022-12-05T08:46:40;17.30;;;8.10;;
68577;SDS011;61668;45.388;11.784;2022-12-05T08:49:06;14.70;;;6.90;;
68577;SDS011;61668;45.388;11.784;2022-12-05T08:51:32;18.20;;;9.00;;
68577;SDS011;61668;45.388;11.784;2022-12-05T08:54:01;15.30;;;6.40;;
68577;SDS011;61668;45.388;11.784;2022-12-05T08:56:27;12.70;;;6.10;;
68577;SDS011;61668;45.388;11.784;2022-12-05T08:58:53;13.40;;;6.20;;
68577;SDS011;61668;45.388;11.784;2022-12-05T09:01:20;13.00;;;6.20;;
68577;SDS011;61668;45.388;11.784;2022-12-05T09:03:47;13.80;;;6.60;;
68577;SDS011;61668;45.388;11.784;2022-12-05T09:06:23;14.10;;;6.50;;
68577;SDS011;61668;45.388;11.784;2022-12-05T09:08:54;13.10;;;5.70;;
68577;SDS011;61668;45.388;11.784;2022-12-05T09:11:23;12.20;;;5.30;;
68577;SDS011;61668;45.388;11.784;2022-12-05T09:13:51;13.70;;;5.80;;
68577;SDS011;61668;45.388;11.784;2022-12-05T09:16:20;12.40;;;5.60;;
68577;SDS011;61668;45.388;11.784;2022-12-05T09:18:48;11.80;;;5.20;;
68577;SDS011;61668;45.388;11.784;2022-12-05T09:21:20;12.30;;;6.30;;
68577;SDS011;61668;45.388;11.784;2022-12-05T09:23:49;12.20;;;5.60;;
68577;SDS011;61668;45.388;11.784;2022-12-05T09:26:18;11.90;;;5.70;;
68577;SDS011;61668;45.388;11.784;2022-12-05T09:28:45;11.40;;;4.50;;
68577;SDS011;61668;45.388;11.784;2022-12-05T09:31:14;10.20;;;4.40;;
68577;SDS011;61668;45.388;11.784;2022-12-05T09:33:43;12.90;;;5.70;;
68577;SDS011;61668;45.388;11.784;2022-12-05T09:36:21;10.00;;;4.00;;
68577;SDS011;61668;45.388;11.784;2022-12-05T09:38:49;8.20;;;2.80;;
68577;SDS011;61668;45.388;11.784;2022-12-05T09:49:57;8.90;;;3.80;;
68577;SDS011;61668;45.388;11.784;2022-12-05T09:52:36;9.80;;;2.80;;
68577;SDS011;61668;45.388;11.784;2022-12-05T09:55:15;10.40;;;4.50;;
68577;SDS011;61668;45.388;11.784;2022-12-05T09:57:49;9.10;;;3.50;;
68577;SDS011;61668;45.388;11.784;2022-12-05T10:00:17;11.50;;;2.40;;
68577;SDS011;61668;45.388;11.784;2022-12-05T10:05:41;7.60;;;1.60;;
68577;SDS011;61668;45.388;11.784;2022-12-05T10:16:45;6.80;;;1.40;;
68577;SDS011;61668;45.388;11.784;2022-12-05T10:19:31;7.10;;;1.50;;
68577;SDS011;61668;45.388;11.784;2022-12-05T10:22:16;6.40;;;1.80;;
68577;SDS011;61668;45.388;11.784;2022-12-05T10:24:58;7.10;;;1.90;;
68577;SDS011;61668;45.388;11.784;2022-12-05T10:27:37;7.40;;;1.90;;
68577;SDS011;61668;45.388;11.784;2022-12-05T10:30:13;8.00;;;2.20;;
68577;SDS011;61668;45.388;11.784;2022-12-05T10:33:00;6.80;;;1.40;;
68577;SDS011;61668;45.388;11.784;2022-12-05T10:35:35;9.80;;;3.70;;
68577;SDS011;61668;45.388;11.784;2022-12-05T10:38:05;8.30;;;2.30;;
68577;SDS011;61668;45.388;11.784;2022-12-05T10:40:45;8.60;;;1.90;;
68577;SDS011;61668;45.388;11.784;2022-12-05T10:43:17;7.90;;;1.90;;
68577;SDS011;61668;45.388;11.784;2022-12-05T10:45:48;7.10;;;1.80;;
68577;SDS011;61668;45.388;11.784;2022-12-05T10:48:16;8.70;;;2.00;;
68577;SDS011;61668;45.388;11.784;2022-12-05T10:50:44;7.50;;;1.90;;
68577;SDS011;61668;45.388;11.784;2022-12-05T10:53:53;7.50;;;1.80;;
68577;SDS011;61668;45.388;11.784;2022-12-05T10:56:38;7.70;;;2.10;;
68577;SDS011;61668;45.388;11.784;2022-12-05T10:59:16;7.40;;;1.90;;
68577;SDS011;61668;45.388;11.784;2022-12-05T11:01:54;8.30;;;2.20;;
68577;SDS011;61668;45.388;11.784;2022-12-05T11:04:38;7.80;;;2.60;;
68577;SDS011;61668;45.388;11.784;2022-12-05T11:07:23;8.00;;;1.70;;
68577;SDS011;61668;45.388;11.784;2022-12-05T11:09:52;8.80;;;1.80;;
68577;SDS011;61668;45.388;11.784;2022-12-05T11:12:23;7.00;;;2.00;;
68577;SDS011;61668;45.388;11.784;2022-12-05T11:14:54;7.40;;;2.00;;
68577;SDS011;61668;45.388;11.784;2022-12-05T11:17:26;6.40;;;1.80;;
68577;SDS011;61668;45.388;11.784;2022-12-05T11:19:56;7.10;;;1.70;;
68577;SDS011;61668;45.388;11.784;2022-12-05T11:22:30;7.60;;;2.40;;
68577;SDS011;61668;45.388;11.784;2022-12-05T11:24:57;6.90;;;2.30;;
68577;SDS011;61668;45.388;11.784;2022-12-05T11:27:28;7.50;;;1.90;;
68577;SDS011;61668;45.388;11.784;2022-12-05T11:29:59;6.80;;;2.10;;
68577;SDS011;61668;45.388;11.784;2022-12-05T11:32:28;8.20;;;2.80;;
68577;SDS011;61668;45.388;11.784;2022-12-05T11:35:08;8.40;;;2.50;;
68577;SDS011;61668;45.388;11.784;2022-12-05T11:37:55;8.10;;;2.50;;
68577;SDS011;61668;45.388;11.784;2022-12-05T11:43:41;8.60;;;2.70;;
68577;SDS011;61668;45.388;11.784;2022-12-05T11:46:50;7.20;;;2.60;;
68577;SDS011;61668;45.388;11.784;2022-12-05T11:53:12;9.50;;;3.00;;
68577;SDS011;61668;45.388;11.784;2022-12-05T11:55:59;9.00;;;3.00;;
68577;SDS011;61668;45.388;11.784;2022-12-05T12:04:40;8.70;;;2.90;;
68577;SDS011;61668;45.388;11.784;2022-12-05T12:10:28;11.70;;;4.10;;
68577;SDS011;61668;45.388;11.784;2022-12-05T12:13:33;11.10;;;4.50;;
68577;SDS011;61668;45.388;11.784;2022-12-05T12:33:54;12.10;;;4.50;;
68577;SDS011;61668;45.388;11.784;2022-12-05T12:36:45;11.70;;;5.30;;
68577;SDS011;61668;45.388;11.784;2022-12-05T12:42:13;9.00;;;3.90;;
68577;SDS011;61668;45.388;11.784;2022-12-05T12:50:34;9.20;;;4.40;;
68577;SDS011;61668;45.388;11.784;2022-12-05T13:02:02;11.80;;;6.40;;
68577;SDS011;61668;45.388;11.784;2022-12-05T13:04:58;13.90;;;7.00;;
68577;SDS011;61668;45.388;11.784;2022-12-05T13:07:43;15.30;;;7.80;;
68577;SDS011;61668;45.388;11.784;2022-12-05T13:12:40;16.40;;;9.20;;
68577;SDS011;61668;45.388;11.784;2022-12-05T13:15:14;15.40;;;8.90;;
68577;SDS011;61668;45.388;11.784;2022-12-05T13:17:45;20.40;;;14.60;;
68577;SDS011;61668;45.388;11.784;2022-12-05T13:20:21;17.20;;;10.80;;
68577;SDS011;61668;45.388;11.784;2022-12-05T13:22:51;21.90;;;11.00;;
68577;SDS011;61668;45.388;11.784;2022-12-05T13:28:04;50.80;;;33.30;;
68577;SDS011;61668;45.388;11.784;2022-12-05T13:30:32;15.10;;;8.50;;
68577;SDS011;61668;45.388;11.784;2022-12-05T13:33:19;15.00;;;8.00;;
68577;SDS011;61668;45.388;11.784;2022-12-05T13:35:54;14.80;;;6.10;;
68577;SDS011;61668;45.388;11.784;2022-12-05T13:38:40;12.80;;;7.00;;
68577;SDS011;61668;45.388;11.784;2022-12-05T13:41:52;13.60;;;7.30;;
68577;SDS011;61668;45.388;11.784;2022-12-05T13:44:49;12.10;;;7.20;;
68577;SDS011;61668;45.388;11.784;2022-12-05T13:56:29;18.50;;;11.20;;
68577;SDS011;61668;45.388;11.784;2022-12-05T14:02:49;20.90;;;12.10;;
68577;SDS011;61668;45.388;11.784;2022-12-05T14:07:46;19.60;;;11.20;;
68577;SDS011;61668;45.388;11.784;2022-12-05T14:10:20;19.50;;;11.50;;
68577;SDS011;61668;45.388;11.784;2022-12-05T14:12:51;21.70;;;11.90;;
68577;SDS011;61668;45.388;11.784;2022-12-05T14:15:29;16.00;;;9.60;;
68577;SDS011;61668;45.388;11.784;2022-12-05T14:21:08;18.10;;;11.30;;
68577;SDS011;61668;45.388;11.784;2022-12-05T14:26:40;19.10;;;10.30;;
68577;SDS011;61668;45.388;11.784;2022-12-05T14:29:50;18.80;;;10.80;;
68577;SDS011;61668;45.388;11.784;2022-12-05T14:32:30;15.90;;;9.00;;
68577;SDS011;61668;45.388;11.784;2022-12-05T14:35:11;30.90;;;14.30;;
68577;SDS011;61668;45.388;11.784;2022-12-05T14:37:41;24.80;;;12.80;;
68577;SDS011;61668;45.388;11.784;2022-12-05T14:40:34;19.20;;;9.70;;
68577;SDS011;61668;45.388;11.784;2022-12-05T14:43:18;16.60;;;9.10;;
68577;SDS011;61668;45.388;11.784;2022-12-05T14:50:45;68.80;;;39.10;;
68577;SDS011;61668;45.388;11.784;2022-12-05T14:53:36;28.60;;;16.80;;
68577;SDS011;61668;45.388;11.784;2022-12-05T14:56:30;49.80;;;30.90;;
68577;SDS011;61668;45.388;11.784;2022-12-05T14:59:03;28.60;;;17.10;;
68577;SDS011;61668;45.388;11.784;2022-12-05T15:01:40;19.00;;;11.00;;
68577;SDS011;61668;45.388;11.784;2022-12-05T15:04:37;21.70;;;11.90;;
68577;SDS011;61668;45.388;11.784;2022-12-05T15:07:18;24.70;;;13.90;;
68577;SDS011;61668;45.388;11.784;2022-12-05T15:10:36;28.00;;;15.70;;
68577;SDS011;61668;45.388;11.784;2022-12-05T15:12:53;25.40;;;17.20;;
68577;SDS011;61668;45.388;11.784;2022-12-05T15:24:01;22.10;;;12.70;;
68577;SDS011;61668;45.388;11.784;2022-12-05T15:26:37;21.30;;;11.10;;
68577;SDS011;61668;45.388;11.784;2022-12-05T15:31:48;26.30;;;15.20;;
68577;SDS011;61668;45.388;11.784;2022-12-05T15:37:33;19.10;;;11.30;;
68577;SDS011;61668;45.388;11.784;2022-12-05T15:40:10;21.20;;;11.00;;
68577;SDS011;61668;45.388;11.784;2022-12-05T15:42:46;26.40;;;13.40;;
68577;SDS011;61668;45.388;11.784;2022-12-05T15:47:44;20.90;;;12.20;;
68577;SDS011;61668;45.388;11.784;2022-12-05T15:50:15;26.60;;;15.20;;
68577;SDS011;61668;45.388;11.784;2022-12-05T15:58:58;30.20;;;21.20;;
68577;SDS011;61668;45.388;11.784;2022-12-05T16:01:27;23.80;;;13.40;;
68577;SDS011;61668;45.388;11.784;2022-12-05T16:07:07;20.40;;;10.70;;
68577;SDS011;61668;45.388;11.784;2022-12-05T16:09:38;24.20;;;12.70;;
68577;SDS011;61668;45.388;11.784;2022-12-05T16:14:50;19.40;;;10.80;;
68577;SDS011;61668;45.388;11.784;2022-12-05T16:17:19;20.70;;;11.00;;
68577;SDS011;61668;45.388;11.784;2022-12-05T16:19:45;22.10;;;12.10;;
68577;SDS011;61668;45.388;11.784;2022-12-05T16:24:44;23.90;;;12.90;;
68577;SDS011;61668;45.388;11.784;2022-12-05T16:27:25;27.20;;;14.10;;
68577;SDS011;61668;45.388;11.784;2022-12-05T16:30:20;25.50;;;14.30;;
68577;SDS011;61668;45.388;11.784;2022-12-05T16:32:49;27.40;;;15.70;;
68577;SDS011;61668;45.388;11.784;2022-12-05T16:38:13;26.70;;;14.50;;
68577;SDS011;61668;45.388;11.784;2022-12-05T16:40:48;25.40;;;14.20;;
68577;SDS011;61668;45.388;11.784;2022-12-05T16:45:58;28.60;;;16.80;;
68577;SDS011;61668;45.388;11.784;2022-12-05T16:48:34;30.70;;;17.40;;
68577;SDS011;61668;45.388;11.784;2022-12-05T16:53:35;27.20;;;15.30;;
68577;SDS011;61668;45.388;11.784;2022-12-05T16:56:04;28.30;;;15.70;;
68577;SDS011;61668;45.388;11.784;2022-12-05T16:58:36;25.30;;;14.90;;
68577;SDS011;61668;45.388;11.784;2022-12-05T17:01:04;27.10;;;15.50;;
68577;SDS011;61668;45.388;11.784;2022-12-05T17:03:32;28.40;;;16.80;;
68577;SDS011;61668;45.388;11.784;2022-12-05T17:05:58;32.20;;;18.90;;
68577;SDS011;61668;45.388;11.784;2022-12-05T17:08:24;30.00;;;17.50;;
68577;SDS011;61668;45.388;11.784;2022-12-05T17:10:50;26.90;;;18.00;;
68577;SDS011;61668;45.388;11.784;2022-12-05T17:13:17;35.20;;;23.50;;
68577;SDS011;61668;45.388;11.784;2022-12-05T17:15:44;31.20;;;18.30;;
68577;SDS011;61668;45.388;11.784;2022-12-05T17:18:17;29.10;;;16.50;;
68577;SDS011;61668;45.388;11.784;2022-12-05T17:20:48;28.10;;;16.40;;
68577;SDS011;61668;45.388;11.784;2022-12-05T17:23:16;27.20;;;16.10;;
68577;SDS011;61668;45.388;11.784;2022-12-05T17:25:48;24.60;;;11.70;;
68577;SDS011;61668;45.388;11.784;2022-12-05T17:28:15;24.00;;;13.40;;
68577;SDS011;61668;45.388;11.784;2022-12-05T17:30:41;24.80;;;12.90;;
68577;SDS011;61668;45.388;11.784;2022-12-05T17:33:15;24.40;;;13.10;;
68577;SDS011;61668;45.388;11.784;2022-12-05T17:35:42;23.20;;;13.10;;
68577;SDS011;61668;45.388;11.784;2022-12-05T17:38:08;22.30;;;12.70;;
68577;SDS011;61668;45.388;11.784;2022-12-05T17:40:35;25.00;;;13.10;;
68577;SDS011;61668;45.388;11.784;2022-12-05T17:43:02;21.30;;;13.20;;
68577;SDS011;61668;45.388;11.784;2022-12-05T17:45:28;21.00;;;12.70;;
68577;SDS011;61668;45.388;11.784;2022-12-05T17:47:54;21.60;;;12.70;;
68577;SDS011;61668;45.388;11.784;2022-12-05T17:50:21;21.90;;;12.10;;
68577;SDS011;61668;45.388;11.784;2022-12-05T17:52:48;21.00;;;12.80;;
68577;SDS011;61668;45.388;11.784;2022-12-05T17:55:26;23.90;;;11.70;;
68577;SDS011;61668;45.388;11.784;2022-12-05T17:57:53;18.50;;;11.10;;